Time;durP1;ratioP1;P1;durP2;ratioP2;P2;SDS_P1;SDS_P2;PMS_P1;PMS_P2;Temp;Humidity;BMP_temperature;BMP_pressure;BME280_temperature;BME280_humidity;BME280_pressure;Samples;Min_cycle;Max_cycle;Signal;HPM_P1;HPM_P2
2022/04/07 00:01:34;;;;;;;;;;;10.30;99.90;;;;;;5059621;28;20019;-61
2022/04/07 00:04:02;;;;;;;;;;;10.30;99.90;;;;;;5059333;28;19935;-61
2022/04/07 00:06:30;;;;;;;;;;;10.20;99.90;;;;;;5063825;28;20009;-60
2022/04/07 00:09:01;;;;;;;;;;;10.20;99.90;;;;;;5066107;28;20023;-61
2022/04/07 00:11:29;;;;;;;;;;;10.10;99.90;;;;;;5057406;28;19978;-61
2022/04/07 00:13:59;;;;;;;;;;;10.10;99.90;;;;;;5058242;28;19998;-62
2022/04/07 00:16:27;;;;;;;;;;;10.10;99.90;;;;;;5056778;28;19955;-62
2022/04/07 00:18:54;;;;;;;;;;;10.10;99.90;;;;;;5058807;28;19955;-62
2022/04/07 00:21:35;;;;;;;;;;;10.10;99.90;;;;;;5057554;28;19963;-61
2022/04/07 00:24:04;;;;;;;;;;;10.10;99.90;;;;;;5058690;28;19955;-62
2022/04/07 00:26:32;;;;;;;;;;;10.20;99.90;;;;;;5063525;28;19982;-60
2022/04/07 00:29:01;;;;;;;;;;;10.10;99.90;;;;;;5058547;28;20379;-62
2022/04/07 00:31:38;;;;;;;;;;;10.10;99.90;;;;;;5057057;28;20375;-61
2022/04/07 00:34:08;;;;;;;;;;;10.10;99.90;;;;;;5054748;28;20065;-62
2022/04/07 00:36:36;;;;;;;;;;;10.10;99.90;;;;;;5067252;28;20425;-61
2022/04/07 00:39:04;;;;;;;;;;;10.10;99.90;;;;;;5071558;28;20479;-61
2022/04/07 00:41:32;;;;;;;;;;;10.00;99.90;;;;;;5071670;28;20005;-61
2022/04/07 00:44:01;;;;;;;;;;;10.00;99.90;;;;;;5070662;28;20065;-61
2022/04/07 00:46:28;;;;;;;;;;;9.90;99.90;;;;;;5071500;28;20298;-60
2022/04/07 00:48:56;;;;;;;;;;;9.90;99.90;;;;;;5071385;28;19962;-61
2022/04/07 00:51:24;;;;;;;;;;;9.90;99.90;;;;;;5071500;28;20058;-62
2022/04/07 00:53:52;;;;;;;;;;;9.90;99.90;;;;;;5070556;28;20716;-62
2022/04/07 00:56:19;;;;;;;;;;;9.90;99.90;;;;;;5071440;28;19974;-62
2022/04/07 00:58:48;;;;;;;;;;;9.90;99.90;;;;;;5070704;28;19962;-61
2022/04/07 01:01:18;;;;;;;;;;;9.90;99.90;;;;;;5071158;28;19985;-62
2022/04/07 01:03:46;;;;;;;;;;;9.90;99.90;;;;;;5070777;28;19958;-62
2022/04/07 01:06:13;;;;;;;;;;;9.90;99.90;;;;;;5077909;28;20014;-62
2022/04/07 01:08:41;;;;;;;;;;;9.90;99.90;;;;;;5070796;28;20005;-62
2022/04/07 01:11:09;;;;;;;;;;;10.00;99.90;;;;;;5070132;28;19963;-62
2022/04/07 01:13:46;;;;;;;;;;;10.00;99.90;;;;;;5070274;28;20493;-62
2022/04/07 01:16:14;;;;;;;;;;;10.10;99.90;;;;;;5071141;28;19959;-61
2022/04/07 01:18:44;;;;;;;;;;;10.10;99.90;;;;;;5070769;28;19961;-61
2022/04/07 01:21:14;;;;;;;;;;;10.10;99.90;;;;;;5064816;28;19962;-62
2022/04/07 01:23:44;;;;;;;;;;;10.00;99.90;;;;;;5070294;28;20017;-62
2022/04/07 01:26:14;;;;;;;;;;;10.00;99.90;;;;;;5071420;28;20405;-62
2022/04/07 01:28:47;;;;;;;;;;;10.10;99.90;;;;;;5070619;28;20014;-62
2022/04/07 01:31:15;;;;;;;;;;;10.00;99.90;;;;;;5071233;28;19965;-62
2022/04/07 01:33:43;;;;;;;;;;;10.00;99.90;;;;;;5070359;28;20025;-62
2022/04/07 01:36:11;;;;;;;;;;;10.00;99.90;;;;;;5074581;28;20419;-61
2022/04/07 01:38:39;;;;;;;;;;;10.00;99.90;;;;;;5070356;28;20011;-62
2022/04/07 01:41:07;;;;;;;;;;;10.00;99.90;;;;;;5071130;28;20023;-62
2022/04/07 01:43:36;;;;;;;;;;;10.00;99.90;;;;;;5070309;28;20072;-62
2022/04/07 01:46:04;;;;;;;;;;;10.10;99.90;;;;;;5072297;28;20609;-62
2022/04/07 01:48:32;;;;;;;;;;;10.10;99.90;;;;;;5070773;28;19961;-61
2022/04/07 01:50:59;;;;;;;;;;;10.10;99.90;;;;;;5070797;28;20492;-62
2022/04/07 01:53:27;;;;;;;;;;;10.10;99.90;;;;;;5069977;28;20005;-61
2022/04/07 01:55:55;;;;;;;;;;;10.10;99.90;;;;;;5070568;28;20069;-62
2022/04/07 01:58:23;;;;;;;;;;;10.10;99.90;;;;;;5070824;28;19963;-62
2022/04/07 02:00:54;;;;;;;;;;;10.10;99.90;;;;;;5070665;28;20507;-62
2022/04/07 02:03:23;;;;;;;;;;;10.10;99.90;;;;;;5069882;28;19974;-62
2022/04/07 02:05:50;;;;;;;;;;;10.10;99.90;;;;;;5070992;28;20436;-61
2022/04/07 02:08:18;;;;;;;;;;;10.10;99.90;;;;;;5070427;28;20010;-62
2022/04/07 02:10:46;;;;;;;;;;;10.10;99.90;;;;;;5070380;28;20057;-62
2022/04/07 02:13:14;;;;;;;;;;;10.00;99.90;;;;;;5068840;28;19990;-62
2022/04/07 02:15:42;;;;;;;;;;;10.00;99.90;;;;;;5070595;28;19960;-62
2022/04/07 02:18:11;;;;;;;;;;;9.90;99.90;;;;;;5074262;28;19958;-62
2022/04/07 02:20:39;;;;;;;;;;;9.90;99.90;;;;;;5069770;28;19995;-62
2022/04/07 02:23:06;;;;;;;;;;;9.80;99.90;;;;;;5073147;28;20033;-62
2022/04/07 02:25:34;;;;;;;;;;;9.80;99.90;;;;;;5073837;28;20001;-61
2022/04/07 02:28:02;;;;;;;;;;;9.80;99.90;;;;;;5073530;28;20007;-61
2022/04/07 02:30:30;;;;;;;;;;;9.70;99.90;;;;;;5073832;28;19964;-61
2022/04/07 02:32:57;;;;;;;;;;;9.60;99.90;;;;;;5073128;28;20440;-61
2022/04/07 02:35:26;;;;;;;;;;;9.60;99.90;;;;;;5073988;28;19964;-61
2022/04/07 02:37:54;;;;;;;;;;;9.50;99.90;;;;;;5073544;28;20052;-61
2022/04/07 02:40:22;;;;;;;;;;;9.50;99.90;;;;;;5073781;28;20047;-62
2022/04/07 02:42:49;;;;;;;;;;;9.40;99.90;;;;;;5072688;28;20054;-62
2022/04/07 02:45:17;;;;;;;;;;;9.40;99.90;;;;;;5073289;28;20064;-61
2022/04/07 02:47:45;;;;;;;;;;;9.40;99.90;;;;;;5069007;28;20051;-62
2022/04/07 02:50:13;;;;;;;;;;;9.40;99.90;;;;;;5073700;28;19965;-61
2022/04/07 02:52:42;;;;;;;;;;;9.40;99.90;;;;;;5072644;28;20063;-61
2022/04/07 02:55:10;;;;;;;;;;;9.40;99.90;;;;;;5073499;28;20017;-61
2022/04/07 02:57:37;;;;;;;;;;;9.40;99.90;;;;;;5073151;28;20545;-60
2022/04/07 03:00:06;;;;;;;;;;;9.40;99.90;;;;;;5073181;28;19994;-62
2022/04/07 03:02:33;;;;;;;;;;;9.30;99.90;;;;;;5072537;28;20065;-61
2022/04/07 03:05:01;;;;;;;;;;;9.30;99.90;;;;;;5073183;28;20065;-61
2022/04/07 03:07:29;;;;;;;;;;;9.30;99.90;;;;;;5073395;28;19970;-61
2022/04/07 03:09:58;;;;;;;;;;;9.30;99.90;;;;;;5073164;28;19970;-61
2022/04/07 03:12:26;;;;;;;;;;;9.30;99.90;;;;;;5072502;28;20597;-61
2022/04/07 03:14:54;;;;;;;;;;;9.30;99.90;;;;;;5072596;28;20034;-61
2022/04/07 03:17:22;;;;;;;;;;;9.30;99.90;;;;;;5072862;28;20009;-61
2022/04/07 03:19:49;;;;;;;;;;;9.30;99.90;;;;;;5072837;28;20064;-61
2022/04/07 03:22:18;;;;;;;;;;;9.30;99.90;;;;;;5072446;28;20402;-60
2022/04/07 03:24:46;;;;;;;;;;;9.30;99.90;;;;;;5072631;28;20023;-61
2022/04/07 03:27:15;;;;;;;;;;;9.40;99.90;;;;;;5094964;22;19974;-70
2022/04/07 03:29:43;;;;;;;;;;;9.40;99.90;;;;;;5071490;28;20000;-72
2022/04/07 03:32:11;;;;;;;;;;;9.40;99.90;;;;;;5071587;28;20027;-72
2022/04/07 03:34:39;;;;;;;;;;;9.40;99.90;;;;;;5072564;28;20450;-71
2022/04/07 03:37:07;;;;;;;;;;;9.40;99.90;;;;;;5072697;28;19965;-72
2022/04/07 03:39:34;;;;;;;;;;;9.50;99.90;;;;;;5072534;28;20075;-72
2022/04/07 03:42:02;;;;;;;;;;;9.50;99.90;;;;;;5072282;28;20491;-69
2022/04/07 03:44:31;;;;;;;;;;;9.50;99.90;;;;;;5073545;28;19965;-71
2022/04/07 03:46:59;;;;;;;;;;;9.50;99.90;;;;;;5072293;28;20419;-71
2022/04/07 03:49:27;;;;;;;;;;;9.50;99.90;;;;;;5072485;28;20494;-71
2022/04/07 03:51:55;;;;;;;;;;;9.50;99.90;;;;;;5072671;28;20034;-69
2022/04/07 03:54:22;;;;;;;;;;;9.50;99.90;;;;;;5071799;28;20488;-70
2022/04/07 03:56:50;;;;;;;;;;;9.50;99.90;;;;;;5072540;28;20038;-73
2022/04/07 03:59:18;;;;;;;;;;;9.50;99.90;;;;;;5054177;28;20011;-71
2022/04/07 04:01:47;;;;;;;;;;;9.50;99.90;;;;;;5072325;28;20055;-71
2022/04/07 04:04:17;;;;;;;;;;;9.50;99.90;;;;;;5071249;28;20468;-70
2022/04/07 04:06:45;;;;;;;;;;;9.50;99.90;;;;;;5071990;28;19965;-71
2022/04/07 04:09:13;;;;;;;;;;;9.50;99.90;;;;;;5071371;28;20066;-71
2022/04/07 04:11:41;;;;;;;;;;;9.50;99.90;;;;;;5062678;28;19991;-71
2022/04/07 04:14:09;;;;;;;;;;;9.60;99.90;;;;;;5059240;28;19999;-70
2022/04/07 04:16:37;;;;;;;;;;;9.60;99.90;;;;;;5063858;28;19999;-71
2022/04/07 04:19:06;;;;;;;;;;;9.60;99.90;;;;;;5072033;28;19968;-72
2022/04/07 04:21:34;;;;;;;;;;;9.60;99.90;;;;;;5071732;28;20018;-70
2022/04/07 04:24:02;;;;;;;;;;;9.60;99.90;;;;;;5071112;28;20420;-71
2022/04/07 04:26:29;;;;;;;;;;;9.60;99.90;;;;;;5071324;28;19960;-72
2022/04/07 04:28:57;;;;;;;;;;;9.70;99.90;;;;;;5071088;28;20461;-71
2022/04/07 04:31:25;;;;;;;;;;;9.70;99.90;;;;;;5065251;28;19974;-69
2022/04/07 04:33:53;;;;;;;;;;;9.70;99.90;;;;;;5061446;28;19972;-69
2022/04/07 04:36:22;;;;;;;;;;;9.70;99.90;;;;;;5065461;28;19994;-71
2022/04/07 04:38:50;;;;;;;;;;;9.70;99.90;;;;;;5063497;28;19969;-69
2022/04/07 04:41:18;;;;;;;;;;;9.80;99.90;;;;;;5064359;28;19968;-69
2022/04/07 04:43:45;;;;;;;;;;;9.70;99.90;;;;;;5070686;28;19970;-70
2022/04/07 04:46:13;;;;;;;;;;;9.80;99.90;;;;;;5062759;28;20041;-67
2022/04/07 04:48:41;;;;;;;;;;;9.70;99.90;;;;;;5066522;28;20379;-69
2022/04/07 04:51:09;;;;;;;;;;;9.70;99.90;;;;;;5065380;28;19970;-69
2022/04/07 04:53:38;;;;;;;;;;;9.70;99.90;;;;;;5067210;28;19978;-68
2022/04/07 04:56:07;;;;;;;;;;;9.60;99.90;;;;;;5067840;28;19967;-68
2022/04/07 04:58:35;;;;;;;;;;;9.60;99.90;;;;;;5062499;28;20048;-68
2022/04/07 05:01:03;;;;;;;;;;;9.50;99.90;;;;;;5071665;28;19995;-68
2022/04/07 05:03:31;;;;;;;;;;;9.50;99.90;;;;;;5056276;28;19967;-70
2022/04/07 05:05:58;;;;;;;;;;;9.40;99.90;;;;;;5064979;28;20039;-68
2022/04/07 05:08:26;;;;;;;;;;;9.40;99.90;;;;;;5063201;28;19968;-70
2022/04/07 05:10:55;;;;;;;;;;;9.40;99.90;;;;;;5051533;28;20478;-68
2022/04/07 05:13:23;;;;;;;;;;;9.40;99.90;;;;;;5066401;28;19989;-70
2022/04/07 05:15:51;;;;;;;;;;;9.50;99.90;;;;;;5066928;28;20869;-67
2022/04/07 05:18:19;;;;;;;;;;;9.40;99.90;;;;;;5066081;28;20000;-69
2022/04/07 05:20:47;;;;;;;;;;;9.50;99.90;;;;;;5065784;28;20007;-69
2022/04/07 05:23:14;;;;;;;;;;;9.50;99.90;;;;;;5070647;28;20581;-70
2022/04/07 05:25:42;;;;;;;;;;;9.60;99.90;;;;;;5059555;28;20342;-68
2022/04/07 05:28:11;;;;;;;;;;;9.50;99.90;;;;;;5058043;28;20622;-69
2022/04/07 05:30:39;;;;;;;;;;;9.60;99.90;;;;;;5069707;28;20086;-68
2022/04/07 05:33:07;;;;;;;;;;;9.70;99.90;;;;;;5065399;28;19974;-70
2022/04/07 05:35:34;;;;;;;;;;;9.70;99.90;;;;;;5067445;28;20007;-69
2022/04/07 05:38:03;;;;;;;;;;;9.70;99.90;;;;;;5062130;28;20066;-67
2022/04/07 05:40:33;;;;;;;;;;;9.80;99.90;;;;;;5069513;28;20179;-69
2022/04/07 05:43:01;;;;;;;;;;;9.70;99.90;;;;;;5056913;28;19968;-71
2022/04/07 05:45:31;;;;;;;;;;;9.80;99.90;;;;;;5070732;28;20333;-71
2022/04/07 05:47:58;;;;;;;;;;;9.80;99.90;;;;;;5071021;28;19970;-71
2022/04/07 05:50:26;;;;;;;;;;;9.80;99.90;;;;;;5059644;28;19965;-72
2022/04/07 05:52:54;;;;;;;;;;;9.80;99.90;;;;;;5054351;28;20018;-73
2022/04/07 05:55:22;;;;;;;;;;;9.80;99.90;;;;;;5055174;28;20391;-72
2022/04/07 05:57:50;;;;;;;;;;;9.80;99.90;;;;;;5061577;28;19960;-73
2022/04/07 06:00:18;;;;;;;;;;;9.80;99.90;;;;;;5075186;28;20468;-71
2022/04/07 06:02:47;;;;;;;;;;;9.80;99.90;;;;;;5067705;28;20021;-70
2022/04/07 06:05:16;;;;;;;;;;;9.80;99.90;;;;;;5057176;28;20010;-79
2022/04/07 06:07:44;;;;;;;;;;;9.80;99.90;;;;;;5072586;28;19960;-71
2022/04/07 06:10:13;;;;;;;;;;;9.90;99.90;;;;;;5054163;28;19963;-70
2022/04/07 06:12:42;;;;;;;;;;;9.80;99.90;;;;;;5053580;28;20498;-70
2022/04/07 06:15:10;;;;;;;;;;;9.80;99.90;;;;;;5053928;28;20005;-72
2022/04/07 06:17:39;;;;;;;;;;;9.80;99.90;;;;;;5054025;28;19965;-70
2022/04/07 06:20:10;;;;;;;;;;;9.70;99.90;;;;;;5057109;28;20060;-70
2022/04/07 06:22:38;;;;;;;;;;;9.70;99.90;;;;;;5058540;28;19963;-71
2022/04/07 06:25:06;;;;;;;;;;;9.70;99.90;;;;;;5068084;28;20002;-71
2022/04/07 06:27:34;;;;;;;;;;;9.70;99.90;;;;;;5069992;28;19967;-71
2022/04/07 06:30:02;;;;;;;;;;;9.80;99.90;;;;;;5072873;28;19967;-70
2022/04/07 06:32:30;;;;;;;;;;;9.80;99.90;;;;;;5071814;28;19966;-70
2022/04/07 06:34:58;;;;;;;;;;;9.80;99.90;;;;;;5072653;28;19965;-71
2022/04/07 06:37:27;;;;;;;;;;;9.90;99.90;;;;;;5072828;28;20038;-71
2022/04/07 06:39:59;;;;;;;;;;;9.90;99.90;;;;;;5073430;28;19969;-70
2022/04/07 06:42:27;;;;;;;;;;;9.90;99.90;;;;;;5071253;28;20026;-71
2022/04/07 06:44:55;;;;;;;;;;;9.90;99.90;;;;;;5073822;28;20005;-71
2022/04/07 06:47:23;;;;;;;;;;;9.90;99.90;;;;;;5074103;28;20004;-70
2022/04/07 06:49:51;;;;;;;;;;;9.90;99.90;;;;;;5074497;28;20068;-70
2022/04/07 06:52:19;;;;;;;;;;;9.80;99.90;;;;;;5073178;28;19969;-71
2022/04/07 06:54:48;;;;;;;;;;;9.80;99.90;;;;;;5073609;28;19970;-71
2022/04/07 06:57:16;;;;;;;;;;;9.80;99.90;;;;;;5073865;28;19970;-71
2022/04/07 06:59:44;;;;;;;;;;;9.70;99.90;;;;;;5074046;28;19966;-71
2022/04/07 07:02:11;;;;;;;;;;;9.70;99.90;;;;;;5073431;28;20012;-71
2022/04/07 07:04:39;;;;;;;;;;;9.60;99.90;;;;;;5073570;28;19967;-71
2022/04/07 07:07:07;;;;;;;;;;;9.60;99.90;;;;;;5073703;28;20323;-71
2022/04/07 07:09:35;;;;;;;;;;;9.60;99.90;;;;;;5073802;28;20073;-71
2022/04/07 07:12:04;;;;;;;;;;;9.60;99.90;;;;;;5072926;28;19971;-70
2022/04/07 07:14:32;;;;;;;;;;;9.60;99.90;;;;;;5073505;28;20072;-72
2022/04/07 07:17:00;;;;;;;;;;;9.60;99.90;;;;;;5073498;28;20010;-71
2022/04/07 07:19:28;;;;;;;;;;;9.60;99.90;;;;;;5073335;28;19978;-71
2022/04/07 07:21:56;;;;;;;;;;;9.60;99.90;;;;;;5073421;28;20389;-71
2022/04/07 07:24:24;;;;;;;;;;;9.60;99.90;;;;;;5072919;28;19970;-71
2022/04/07 07:26:51;;;;;;;;;;;9.60;99.90;;;;;;5055410;28;20359;-71
2022/04/07 07:29:20;;;;;;;;;;;9.70;99.90;;;;;;5073101;28;20010;-71
2022/04/07 07:31:48;;;;;;;;;;;9.70;99.90;;;;;;5073110;28;20326;-71
2022/04/07 07:34:16;;;;;;;;;;;9.80;99.90;;;;;;5072312;28;19966;-72
2022/04/07 07:36:44;;;;;;;;;;;9.80;99.90;;;;;;5073305;28;20349;-71
2022/04/07 07:39:12;;;;;;;;;;;9.80;99.90;;;;;;5073422;28;20388;-71
2022/04/07 07:41:41;;;;;;;;;;;9.80;99.90;;;;;;5072922;28;19975;-70
2022/04/07 07:44:09;;;;;;;;;;;9.80;99.90;;;;;;5071597;28;20008;-71
2022/04/07 07:46:38;;;;;;;;;;;9.80;99.90;;;;;;5072709;28;20357;-71
2022/04/07 07:49:08;;;;;;;;;;;9.80;99.90;;;;;;5072656;28;20005;-71
2022/04/07 07:51:37;;;;;;;;;;;9.80;99.90;;;;;;5072791;28;19971;-71
2022/04/07 07:54:05;;;;;;;;;;;9.80;99.90;;;;;;5071942;28;19974;-71
2022/04/07 07:56:33;;;;;;;;;;;9.80;99.90;;;;;;5072811;28;20530;-71
2022/04/07 07:59:07;;;;;;;;;;;9.90;99.90;;;;;;5072495;28;19979;-71
2022/04/07 08:01:35;;;;;;;;;;;9.90;99.90;;;;;;5072939;28;20058;-70
2022/04/07 08:04:04;;;;;;;;;;;9.90;99.90;;;;;;5071852;28;20432;-71
2022/04/07 08:06:32;;;;;;;;;;;9.90;99.90;;;;;;5072618;28;19966;-72
2022/04/07 08:09:01;;;;;;;;;;;10.00;99.90;;;;;;5072199;28;20014;-72
2022/04/07 08:11:29;;;;;;;;;;;10.00;99.90;;;;;;5054364;28;20016;-70
2022/04/07 08:13:57;;;;;;;;;;;10.00;99.90;;;;;;5071468;28;20030;-69
2022/04/07 08:16:25;;;;;;;;;;;10.00;99.90;;;;;;5072414;28;19967;-70
2022/04/07 08:18:52;;;;;;;;;;;10.10;99.90;;;;;;5072229;28;19966;-70
2022/04/07 08:21:21;;;;;;;;;;;10.10;99.90;;;;;;5072708;28;19967;-70
2022/04/07 08:23:49;;;;;;;;;;;10.10;99.90;;;;;;5071633;28;20020;-70
2022/04/07 08:26:17;;;;;;;;;;;10.10;99.90;;;;;;5072140;28;20001;-69
2022/04/07 08:28:46;;;;;;;;;;;10.10;99.90;;;;;;5072085;28;19994;-71
2022/04/07 08:31:13;;;;;;;;;;;10.10;99.90;;;;;;5071958;28;19967;-73
2022/04/07 08:33:41;;;;;;;;;;;10.10;99.90;;;;;;5071406;28;19974;-69
2022/04/07 08:36:09;;;;;;;;;;;10.10;99.90;;;;;;5072010;28;19993;-70
2022/04/07 08:38:38;;;;;;;;;;;10.20;99.90;;;;;;5071913;28;20399;-70
2022/04/07 08:41:07;;;;;;;;;;;10.20;99.90;;;;;;5071816;28;20018;-70
2022/04/07 08:43:38;;;;;;;;;;;10.30;99.90;;;;;;5069784;28;20416;-71
2022/04/07 08:46:07;;;;;;;;;;;10.40;99.90;;;;;;5071684;28;19971;-70
2022/04/07 08:48:36;;;;;;;;;;;10.40;99.90;;;;;;5071921;28;20017;-70
2022/04/07 08:51:05;;;;;;;;;;;10.40;99.90;;;;;;5071771;28;20016;-70
2022/04/07 08:53:34;;;;;;;;;;;10.50;99.90;;;;;;5071014;28;20483;-69
2022/04/07 08:56:04;;;;;;;;;;;10.60;99.90;;;;;;5071753;28;20016;-70
2022/04/07 08:58:32;;;;;;;;;;;10.60;99.90;;;;;;5071564;28;20395;-70
2022/04/07 09:01:00;;;;;;;;;;;10.60;99.90;;;;;;5071571;28;19969;-69
2022/04/07 09:03:28;;;;;;;;;;;10.60;99.90;;;;;;5071121;28;20059;-70
2022/04/07 09:05:57;;;;;;;;;;;10.60;99.90;;;;;;5071586;28;19973;-69
2022/04/07 09:08:31;;;;;;;;;;;10.70;99.90;;;;;;5071522;28;20001;-70
2022/04/07 09:11:00;;;;;;;;;;;10.70;99.90;;;;;;5071860;28;20426;-70
2022/04/07 09:13:34;;;;;;;;;;;10.80;99.90;;;;;;5070958;28;19973;-68
2022/04/07 09:16:03;;;;;;;;;;;10.80;99.90;;;;;;5071555;28;20352;-70
2022/04/07 09:18:33;;;;;;;;;;;10.80;99.90;;;;;;5071395;28;19967;-69
2022/04/07 09:21:01;;;;;;;;;;;10.90;99.90;;;;;;5071425;28;19994;-70
2022/04/07 09:23:29;;;;;;;;;;;10.90;99.90;;;;;;5070701;28;20021;-70
2022/04/07 09:25:58;;;;;;;;;;;11.00;99.90;;;;;;5074068;28;19973;-68
2022/04/07 09:28:27;;;;;;;;;;;11.00;99.90;;;;;;5099028;22;19963;-62
2022/04/07 09:30:57;;;;;;;;;;;11.10;99.90;;;;;;5074965;28;19960;-61
2022/04/07 09:33:26;;;;;;;;;;;11.10;99.90;;;;;;5074845;28;19976;-62
2022/04/07 09:36:00;;;;;;;;;;;11.10;99.90;;;;;;5075279;28;19970;-62
2022/04/07 09:38:29;;;;;;;;;;;11.20;99.90;;;;;;5075551;28;19967;-62
2022/04/07 09:41:04;;;;;;;;;;;11.30;99.90;;;;;;5075145;28;20073;-63
2022/04/07 09:43:41;;;;;;;;;;;11.40;99.90;;;;;;5072952;28;19969;-61
2022/04/07 09:46:11;;;;;;;;;;;11.50;99.90;;;;;;5074914;28;19973;-62
2022/04/07 09:48:39;;;;;;;;;;;11.50;99.90;;;;;;5075027;28;19968;-63
2022/04/07 09:51:07;;;;;;;;;;;11.60;99.90;;;;;;5074714;28;19964;-62
2022/04/07 09:53:36;;;;;;;;;;;11.60;99.90;;;;;;5074306;28;20448;-62
2022/04/07 09:56:04;;;;;;;;;;;11.60;99.90;;;;;;5074903;28;20370;-62
2022/04/07 09:58:33;;;;;;;;;;;11.70;99.90;;;;;;5074863;28;20464;-62
2022/04/07 10:01:02;;;;;;;;;;;11.70;99.90;;;;;;5074499;28;20043;-62
2022/04/07 10:03:31;;;;;;;;;;;11.70;99.90;;;;;;5074190;28;19971;-63
2022/04/07 10:06:00;;;;;;;;;;;11.70;99.90;;;;;;5074917;28;19964;-63
2022/04/07 10:08:27;;;;;;;;;;;11.80;99.90;;;;;;5074509;28;20056;-62
2022/04/07 10:10:55;;;;;;;;;;;11.80;99.90;;;;;;5074258;28;20015;-61
2022/04/07 10:13:23;;;;;;;;;;;11.80;99.90;;;;;;5073905;28;20431;-62
2022/04/07 10:15:52;;;;;;;;;;;11.90;99.90;;;;;;5074533;28;20014;-62
2022/04/07 10:18:24;;;;;;;;;;;12.00;99.90;;;;;;5074438;28;20134;-62
2022/04/07 10:20:57;;;;;;;;;;;12.00;99.90;;;;;;5074255;28;19990;-63
2022/04/07 10:23:31;;;;;;;;;;;12.10;99.90;;;;;;5073624;28;19992;-62
2022/04/07 10:25:59;;;;;;;;;;;12.10;99.90;;;;;;5074458;28;19968;-62
2022/04/07 10:28:27;;;;;;;;;;;12.10;99.90;;;;;;5073861;28;20389;-63
2022/04/07 10:31:11;;;;;;;;;;;12.10;99.90;;;;;;5056101;28;19968;-63
2022/04/07 10:33:43;;;;;;;;;;;12.10;99.90;;;;;;5073547;28;20026;-63
2022/04/07 10:36:19;;;;;;;;;;;12.10;99.90;;;;;;5073598;28;20013;-62
2022/04/07 10:38:47;;;;;;;;;;;12.10;99.90;;;;;;5073964;28;19968;-63
2022/04/07 10:41:34;;;;;;;;;;;12.10;99.90;;;;;;5073906;28;19968;-62
2022/04/07 10:44:09;;;;;;;;;;;12.20;99.90;;;;;;5071483;28;20067;-64
2022/04/07 10:46:37;;;;;;;;;;;12.20;99.90;;;;;;5073864;28;19963;-63
2022/04/07 10:49:06;;;;;;;;;;;12.30;99.90;;;;;;5073718;28;20529;-62
2022/04/07 10:51:45;;;;;;;;;;;12.40;99.90;;;;;;5073760;28;19965;-62
2022/04/07 10:54:14;;;;;;;;;;;12.40;99.90;;;;;;5073245;28;19968;-62
2022/04/07 10:56:46;;;;;;;;;;;12.40;99.90;;;;;;5073411;28;19972;-62
2022/04/07 10:59:19;;;;;;;;;;;12.50;99.90;;;;;;5073657;28;20493;-63
2022/04/07 11:01:51;;;;;;;;;;;12.60;99.90;;;;;;5073529;28;19964;-63
2022/04/07 11:04:32;;;;;;;;;;;12.60;99.90;;;;;;5072943;28;20009;-63
2022/04/07 11:07:17;;;;;;;;;;;12.70;99.90;;;;;;5073578;28;20037;-63
2022/04/07 11:09:47;;;;;;;;;;;12.70;99.90;;;;;;5073640;28;20033;-63
2022/04/07 11:12:18;;;;;;;;;;;12.80;99.90;;;;;;5072705;28;20029;-63
2022/04/07 11:14:47;;;;;;;;;;;12.80;99.90;;;;;;5073284;28;19960;-62
2022/04/07 11:17:16;;;;;;;;;;;12.90;99.90;;;;;;5073150;28;19964;-62
2022/04/07 11:19:52;;;;;;;;;;;13.00;99.90;;;;;;5073250;28;19990;-62
2022/04/07 11:22:41;;;;;;;;;;;13.10;99.90;;;;;;5072495;28;20492;-63
2022/04/07 11:25:10;;;;;;;1.02;0.50;;;13.20;99.90;;;;;;5072648;28;20225;-63
2022/04/07 11:27:42;;;;;;;0.63;0.40;;;13.10;99.90;;;;;;5072180;28;20725;-62
2022/04/07 11:30:11;;;;;;;1.70;0.40;;;13.10;99.90;;;;;;5072703;28;20268;-63
2022/04/07 11:32:41;;;;;;;1.98;0.50;;;13.10;99.90;;;;;;5071542;28;20253;-62
2022/04/07 11:35:13;;;;;;;1.50;0.60;;;13.10;99.90;;;;;;5072527;28;20245;-62
2022/04/07 11:37:43;;;;;;;1.40;0.43;;;13.10;99.90;;;;;;5072368;28;20668;-63
2022/04/07 11:40:12;;;;;;;1.08;0.73;;;13.10;99.90;;;;;;5072257;28;20652;-62
2022/04/07 11:42:40;;;;;;;0.70;0.50;;;13.10;99.90;;;;;;5070503;28;20286;-61
2022/04/07 11:45:10;;;;;;;0.60;0.47;;;13.00;99.90;;;;;;5072239;28;20222;-62
2022/04/07 11:47:38;;;;;;;0.65;0.50;;;13.20;99.90;;;;;;5071588;28;20262;-61
2022/04/07 11:50:07;;;;;;;1.45;0.50;;;13.50;99.90;;;;;;5072037;28;20257;-63
2022/04/07 11:52:36;;;;;;;1.67;0.45;;;13.60;99.90;;;;;;5071426;28;20229;-62
2022/04/07 11:55:06;;;;;;;0.75;0.47;;;13.50;99.90;;;;;;5071874;28;20202;-63
2022/04/07 11:57:35;;;;;;;0.80;0.50;;;13.60;99.90;;;;;;5071897;28;20660;-63
2022/04/07 12:00:06;;;;;;;1.45;0.73;;;13.70;99.90;;;;;;5072009;28;20241;-62
2022/04/07 12:02:34;;;;;;;0.95;0.40;;;13.80;99.90;;;;;;5070769;28;20195;-62
2022/04/07 12:05:04;;;;;;;0.60;0.50;;;13.70;99.90;;;;;;5071778;28;20842;-62
2022/04/07 12:07:32;;;;;;;3.42;0.60;;;13.60;99.90;;;;;;5071726;28;20203;-63
2022/04/07 12:10:09;;;;;;;0.60;0.50;;;13.60;99.90;;;;;;5071867;28;20219;-61
2022/04/07 12:12:41;;;;;;;1.42;0.50;;;13.70;99.90;;;;;;5071063;28;20252;-62
2022/04/07 12:15:11;;;;;;;1.85;0.65;;;13.70;99.90;;;;;;5071540;28;20245;-62
2022/04/07 12:18:00;;;;;;;1.30;0.70;;;13.80;99.90;;;;;;5071531;28;20607;-62
2022/04/07 12:20:28;;;;;;;1.20;0.52;;;13.80;99.90;;;;;;5071753;28;20245;-63
2022/04/07 12:23:07;;;;;;;0.70;0.60;;;13.80;99.90;;;;;;5070660;28;20191;-63
2022/04/07 12:25:36;;;;;;;0.93;0.70;;;13.80;99.90;;;;;;5071323;28;20231;-63
2022/04/07 12:28:09;;;;;;;3.80;0.40;;;14.00;99.90;;;;;;5071130;28;20239;-62
2022/04/07 12:30:44;;;;;;;1.00;0.70;;;14.10;99.90;;;;;;5071407;28;20656;-63
2022/04/07 12:33:12;;;;;;;0.90;0.55;;;14.30;99.90;;;;;;5070740;28;20222;-62
2022/04/07 12:35:46;;;;;;;0.80;0.60;;;14.30;99.90;;;;;;5071392;28;20229;-63
2022/04/07 12:38:14;;;;;;;1.02;0.50;;;14.40;99.90;;;;;;5071191;28;20631;-63
2022/04/07 12:40:44;;;;;;;1.10;0.50;;;14.40;99.90;;;;;;5071087;28;20703;-63
2022/04/07 12:43:12;;;;;;;1.50;0.65;;;14.40;99.90;;;;;;5069310;28;20219;-62
2022/04/07 12:45:56;;;;;;;0.70;0.50;;;14.40;99.90;;;;;;5071220;28;20204;-62
2022/04/07 12:48:24;;;;;;;0.65;0.50;;;14.40;99.90;;;;;;5071162;28;20703;-63
2022/04/07 12:50:56;;;;;;;1.27;0.50;;;14.40;99.90;;;;;;5070901;28;20347;-62
2022/04/07 12:53:29;;;;;;;0.88;0.57;;;14.40;99.90;;;;;;5070267;28;20229;-63
2022/04/07 12:56:02;;;;;;;1.00;0.75;;;14.20;99.90;;;;;;5071146;28;20264;-62
2022/04/07 12:58:32;;;;;;;1.35;0.50;;;13.90;99.90;;;;;;5070814;28;20223;-61
2022/04/07 13:01:01;;;;;;;1.67;0.50;;;13.80;99.90;;;;;;5070871;28;20196;-62
2022/04/07 13:03:29;;;;;;;1.48;0.50;;;13.60;99.90;;;;;;5070417;28;20191;-62
2022/04/07 13:05:59;;;;;;;4.50;0.68;;;13.40;99.90;;;;;;5071055;28;20198;-62
2022/04/07 13:08:26;;;;;;;1.67;0.60;;;13.20;99.90;;;;;;5071168;28;20639;-63
2022/04/07 13:10:54;;;;;;;1.98;0.80;;;13.10;99.90;;;;;;5070552;28;20211;-62
2022/04/07 13:13:24;;;;;;;1.45;0.80;;;12.80;99.90;;;;;;5070122;28;20195;-62
2022/04/07 13:15:52;;;;;;;1.85;0.85;;;12.70;99.90;;;;;;5070814;28;20219;-62
2022/04/07 13:18:19;;;;;;;4.05;1.20;;;12.50;99.90;;;;;;5070800;28;20219;-61
2022/04/07 13:20:47;;;;;;;2.78;0.65;;;12.30;99.90;;;;;;5051272;28;20250;-61
2022/04/07 13:23:15;;;;;;;1.65;0.70;;;12.20;99.90;;;;;;5036962;28;20197;-62
2022/04/07 13:25:43;;;;;;;3.03;0.93;;;12.10;99.90;;;;;;5041052;28;20209;-62
2022/04/07 13:28:11;;;;;;;2.35;1.10;;;12.10;99.90;;;;;;5040257;28;20278;-62
2022/04/07 13:30:40;;;;;;;2.80;0.77;;;12.10;99.90;;;;;;5049753;28;20246;-61
2022/04/07 13:33:08;;;;;;;2.10;0.77;;;12.10;99.90;;;;;;5048271;28;20211;-62
2022/04/07 13:35:46;;;;;;;1.70;0.80;;;12.20;99.90;;;;;;5029771;28;20196;-62
2022/04/07 13:38:15;;;;;;;2.20;0.90;;;12.20;99.90;;;;;;5037233;28;20224;-62
2022/04/07 13:40:43;;;;;;;1.10;0.70;;;12.20;99.90;;;;;;5050034;28;20302;-62
2022/04/07 13:43:11;;;;;;;1.10;1.00;;;12.30;99.90;;;;;;5046893;28;20249;-61
2022/04/07 13:45:44;;;;;;;2.08;0.75;;;12.30;99.90;;;;;;5047571;28;20630;-61
2022/04/07 13:48:20;;;;;;;1.88;0.70;;;12.40;99.90;;;;;;5050714;28;20632;-62
2022/04/07 13:50:48;;;;;;;1.67;0.60;;;12.50;99.90;;;;;;5050610;28;20246;-62
2022/04/07 13:53:17;;;;;;;1.55;0.70;;;12.50;99.90;;;;;;5048217;28;20226;-62
2022/04/07 13:55:45;;;;;;;1.23;0.80;;;12.60;99.90;;;;;;5050588;28;20200;-62
2022/04/07 13:58:13;;;;;;;1.45;0.50;;;12.50;99.90;;;;;;5050462;28;20270;-62
2022/04/07 14:00:44;;;;;;;0.90;0.60;;;12.50;99.90;;;;;;5050940;28;20231;-62
2022/04/07 14:03:13;;;;;;;1.10;0.50;;;12.60;99.90;;;;;;5049526;28;20231;-62
2022/04/07 14:05:41;;;;;;;0.70;0.50;;;12.70;99.90;;;;;;5050615;28;20546;-62
2022/04/07 14:08:13;;;;;;;1.15;0.70;;;12.70;99.90;;;;;;5050439;28;20290;-62
2022/04/07 14:10:42;;;;;;;2.35;0.65;;;12.70;99.90;;;;;;5050519;28;20254;-62
2022/04/07 14:13:11;;;;;;;0.60;0.60;;;12.70;99.90;;;;;;5053082;28;20246;-62